createdAt,value
2019-04-07T00:01:34.407Z,38.57
2019-04-07T00:05:35.600Z,38.90
2019-04-07T00:09:37.227Z,36.27
2019-04-07T00:13:38.412Z,36.23
2019-04-07T00:17:39.430Z,37.03
2019-04-07T00:21:40.860Z,40.87
2019-04-07T00:25:42.032Z,37.77
2019-04-07T00:29:42.917Z,37.80
2019-04-07T00:33:43.914Z,35.47
2019-04-07T00:37:44.887Z,36.87
2019-04-07T00:41:46.358Z,36.80
2019-04-07T00:45:47.338Z,36.13
2019-04-07T00:49:48.329Z,37.23
2019-04-07T00:53:49.810Z,35.93
2019-04-07T00:57:50.845Z,34.63
2019-04-07T01:01:51.816Z,37.17
2019-04-07T01:05:53.303Z,38.50
2019-04-07T01:09:54.292Z,38.37
2019-04-07T01:13:55.521Z,40.27
2019-04-07T01:17:56.510Z,38.80
2019-04-07T01:21:57.409Z,37.90
2019-04-07T01:25:58.566Z,37.30
2019-04-07T01:29:59.603Z,35.23
2019-04-07T01:34:00.551Z,34.70
2019-04-07T01:38:01.588Z,35.83
2019-04-07T01:42:10.724Z,32.23
2019-04-07T01:46:17.412Z,35.40
2019-04-07T01:50:21.090Z,40.33
2019-04-07T01:54:27.142Z,38.00
2019-04-07T01:58:32.890Z,41.83
2019-04-07T02:02:47.848Z,44.97
2019-04-07T02:06:59.591Z,44.50
2019-04-07T02:11:18.973Z,48.03
2019-04-07T02:15:30.932Z,49.27
2019-04-07T02:19:37.077Z,43.17
2019-04-07T02:23:49.437Z,46.27
2019-04-07T02:27:52.306Z,43.73
2019-04-07T02:31:58.488Z,43.43
2019-04-07T02:36:17.945Z,40.07
2019-04-07T02:40:15.296Z,38.37
2019-04-07T02:44:35.184Z,35.87
2019-04-07T02:48:41.247Z,41.27
2019-04-07T02:52:45.198Z,42.80
2019-04-07T02:56:52.374Z,47.07
2019-04-07T03:00:55.682Z,42.37
2019-04-07T03:05:05.296Z,43.93
2019-04-07T03:09:09.294Z,46.03
2019-04-07T03:13:12.755Z,48.07
2019-04-07T03:17:18.600Z,44.87
2019-04-07T03:21:31.081Z,50.27
2019-04-07T03:25:37.021Z,47.93
2019-04-07T03:29:40.293Z,50.03
2019-04-07T03:33:45.792Z,45.83
2019-04-07T03:37:48.916Z,44.67
2019-04-07T03:42:04.335Z,44.07
2019-04-07T03:46:22.463Z,40.97
2019-04-07T03:50:28.048Z,38.30
2019-04-07T03:54:37.046Z,43.50
2019-04-07T03:58:59.850Z,40.60
2019-04-07T04:03:02.876Z,42.83
2019-04-07T04:07:20.241Z,40.37
2019-04-07T04:11:14.188Z,41.03
2019-04-07T04:15:20.127Z,39.13
2019-04-07T04:19:21.220Z,43.00
2019-04-07T04:23:22.126Z,41.67
2019-04-07T04:27:23.838Z,42.87
2019-04-07T04:31:25.466Z,41.33
2019-04-07T04:35:26.715Z,43.87
2019-04-07T04:39:27.859Z,43.70
2019-04-07T04:43:28.751Z,44.73
2019-04-07T04:47:29.730Z,46.33
2019-04-07T04:51:35.058Z,44.37
2019-04-07T04:55:33.798Z,46.43
2019-04-07T04:59:35.232Z,41.83
2019-04-07T05:03:36.285Z,41.77
2019-04-07T05:07:49.746Z,39.80
2019-04-07T05:11:40.786Z,40.10
2019-04-07T05:15:41.856Z,42.63
2019-04-07T05:19:42.942Z,40.40
2019-04-07T05:23:44.170Z,39.00
2019-04-07T05:27:45.777Z,37.97
2019-04-07T05:31:46.750Z,40.53
2019-04-07T05:35:48.316Z,39.73
2019-04-07T05:39:49.311Z,35.63
2019-04-07T05:43:50.284Z,35.77
2019-04-07T05:47:53.228Z,36.40
2019-04-07T05:51:54.501Z,32.13
2019-04-07T05:55:56.242Z,35.20
2019-04-07T05:59:57.287Z,30.93
2019-04-07T06:03:58.200Z,31.17
2019-04-07T06:08:06.301Z,28.90
2019-04-07T06:12:05.938Z,30.37
2019-04-07T06:16:05.356Z,29.70
2019-04-07T06:20:12.059Z,27.67
2019-04-07T06:24:10.160Z,26.27
2019-04-07T06:28:12.033Z,25.63
2019-04-07T06:32:14.376Z,24.63
2019-04-07T06:36:18.437Z,26.23
2019-04-07T06:40:20.569Z,21.87
2019-04-07T06:44:22.978Z,23.37
2019-04-07T06:48:24.700Z,21.10
2019-04-07T06:52:40.575Z,17.60
2019-04-07T06:56:50.004Z,10.90
2019-04-07T07:01:05.805Z,9.93
2019-04-07T07:05:14.365Z,10.10
2019-04-07T07:09:20.073Z,9.60
2019-04-07T07:17:47.970Z,10.17
2019-04-07T07:21:51.090Z,9.50
2019-04-07T07:26:00.976Z,8.87
2019-04-07T07:30:03.178Z,8.57
2019-04-07T07:34:04.983Z,9.13
2019-04-07T07:38:07.544Z,8.20
2019-04-07T07:42:09.356Z,9.13
2019-04-07T07:46:10.530Z,8.90
2019-04-07T07:50:12.148Z,8.97
2019-04-07T07:54:14.947Z,8.47
2019-04-07T07:58:16.043Z,8.37
2019-04-07T08:02:19.438Z,8.43
2019-04-07T08:06:20.508Z,9.27
2019-04-07T08:10:25.081Z,9.97
2019-04-07T08:14:24.288Z,11.93
2019-04-07T08:18:25.164Z,9.97
2019-04-07T08:22:32.456Z,8.77
2019-04-07T08:26:28.936Z,7.57
2019-04-07T08:30:30.632Z,8.80
2019-04-07T08:34:33.027Z,8.50
2019-04-07T08:38:34.377Z,9.73
2019-04-07T08:42:35.808Z,9.60
2019-04-07T08:46:41.630Z,9.77
2019-04-07T08:50:39.918Z,8.77
2019-04-07T08:54:41.030Z,8.07
2019-04-07T08:58:42.571Z,10.23
2019-04-07T09:02:44.010Z,8.37
2019-04-07T09:06:45.010Z,9.40
2019-04-07T09:10:50.984Z,9.30
2019-04-07T09:14:52.140Z,9.37
2019-04-07T09:19:03.840Z,9.27
2019-04-07T09:23:12.373Z,7.57
2019-04-07T09:27:27.214Z,9.20
2019-04-07T09:31:36.403Z,7.97
2019-04-07T09:35:58.731Z,7.20
2019-04-07T09:40:03.057Z,5.90
2019-04-07T09:44:08.222Z,5.47
2019-04-07T09:48:13.785Z,4.50
2019-04-07T09:52:29.402Z,4.13
2019-04-07T09:56:33.498Z,5.33
2019-04-07T10:00:46.501Z,5.37
2019-04-07T10:04:52.118Z,4.43
2019-04-07T10:09:01.089Z,4.00
2019-04-07T10:13:06.731Z,3.60
2019-04-07T10:17:18.722Z,3.80
2019-04-07T10:21:21.852Z,3.73
2019-04-07T10:25:34.311Z,4.70
2019-04-07T10:29:40.273Z,3.83
2019-04-07T10:33:58.351Z,5.00
2019-04-07T10:38:04.337Z,4.00
2019-04-07T10:42:13.747Z,3.00
2019-04-07T10:46:20.335Z,3.17
2019-04-07T10:50:26.837Z,2.93
2019-04-07T10:54:32.580Z,3.07
2019-04-07T10:58:53.984Z,3.33
2019-04-07T11:03:00.846Z,2.27
2019-04-07T11:07:04.190Z,3.93
2019-04-07T11:11:13.283Z,2.87
2019-04-07T11:15:28.110Z,2.47
2019-04-07T11:19:31.123Z,2.50
2019-04-07T11:23:52.343Z,2.30
2019-04-07T11:28:04.626Z,2.60
2019-04-07T11:32:20.672Z,2.40
2019-04-07T11:36:26.533Z,2.83
2019-04-07T11:40:49.594Z,2.77
2019-04-07T11:44:51.822Z,2.17
2019-04-07T11:49:13.086Z,2.40
2019-04-07T11:53:22.042Z,2.43
2019-04-07T11:57:24.906Z,2.80
2019-04-07T12:01:28.171Z,2.57
2019-04-07T12:05:40.786Z,3.00
2019-04-07T12:10:00.256Z,2.53
2019-04-07T12:14:06.298Z,3.17
2019-04-07T12:18:21.458Z,3.47
2019-04-07T12:22:28.167Z,2.63
2019-04-07T12:26:42.444Z,2.00
2019-04-07T12:30:48.303Z,3.00
2019-04-07T12:35:08.082Z,2.77
2019-04-07T12:39:16.249Z,3.17
2019-04-07T12:43:24.950Z,3.57
2019-04-07T12:47:34.368Z,4.17
2019-04-07T12:51:55.810Z,2.70
2019-04-07T12:56:09.691Z,2.80
2019-04-07T13:00:25.223Z,2.60
2019-04-07T13:04:28.411Z,3.00
2019-04-07T13:08:49.055Z,2.83
2019-04-07T13:13:10.224Z,2.40
2019-04-07T13:17:13.765Z,1.90
2019-04-07T13:21:26.704Z,2.23
2019-04-07T13:25:31.151Z,3.43
2019-04-07T13:29:51.803Z,2.53
2019-04-07T13:34:10.639Z,2.90
2019-04-07T13:38:19.500Z,2.83
2019-04-07T13:42:23.055Z,3.77
2019-04-07T13:46:35.997Z,2.73
2019-04-07T13:50:46.977Z,3.07
2019-04-07T13:54:52.677Z,3.17
2019-04-07T13:59:09.881Z,3.17
2019-04-07T14:03:14.525Z,3.50
2019-04-07T14:07:18.157Z,3.53
2019-04-07T14:11:53.155Z,4.63
2019-04-07T14:15:43.290Z,3.50
2019-04-07T14:20:03.886Z,3.37
2019-04-07T14:24:19.741Z,4.43
2019-04-07T14:28:35.703Z,4.90
2019-04-07T14:32:51.976Z,4.13
2019-04-07T14:37:12.027Z,4.33
2019-04-07T14:41:26.933Z,7.53
2019-04-07T14:45:32.508Z,8.30
2019-04-07T14:49:38.284Z,7.93
2019-04-07T14:53:46.043Z,7.50
2019-04-07T14:58:06.711Z,7.80
2019-04-07T15:02:08.111Z,8.10
2019-04-07T15:06:09.754Z,9.70
2019-04-07T15:10:17.991Z,8.97
2019-04-07T15:14:19.209Z,9.57
2019-04-07T15:18:21.453Z,9.13
2019-04-07T15:22:25.131Z,10.23
2019-04-07T15:26:25.492Z,10.70
2019-04-07T15:30:26.630Z,9.27
2019-04-07T15:34:29.718Z,9.63
2019-04-07T15:38:31.295Z,9.10
2019-04-07T15:42:40.443Z,9.40
2019-04-07T15:46:36.560Z,8.37
2019-04-07T15:50:38.192Z,7.47
2019-04-07T15:54:40.221Z,7.97
2019-04-07T15:58:41.950Z,8.90
2019-04-07T16:02:43.457Z,8.93
2019-04-07T16:06:48.733Z,10.73
2019-04-07T16:10:48.359Z,10.03
2019-04-07T16:14:50.321Z,9.67
2019-04-07T16:18:52.692Z,10.53
2019-04-07T16:22:53.921Z,9.33
2019-04-07T16:26:54.966Z,9.23
2019-04-07T16:30:56.274Z,7.90
2019-04-07T16:34:57.315Z,10.17
2019-04-07T16:39:00.393Z,9.30
2019-04-07T16:43:09.963Z,9.27
2019-04-07T16:47:04.279Z,9.27
2019-04-07T16:51:06.026Z,9.13
2019-04-07T16:55:27.222Z,9.77
2019-04-07T16:59:28.415Z,10.20
2019-04-07T17:03:29.775Z,12.57
2019-04-07T17:07:30.724Z,10.93
2019-04-07T17:11:32.316Z,11.07
2019-04-07T17:15:37.351Z,11.50
2019-04-07T17:19:37.233Z,11.53
2019-04-07T17:23:38.800Z,11.33
2019-04-07T17:27:42.439Z,12.70
2019-04-07T17:31:44.385Z,11.47
2019-04-07T17:35:46.105Z,11.57
2019-04-07T17:39:49.477Z,13.40
2019-04-07T17:44:13.223Z,13.37
2019-04-07T17:48:23.331Z,13.67
2019-04-07T17:52:27.081Z,15.03
2019-04-07T17:56:36.837Z,13.60
2019-04-07T18:00:41.355Z,14.13
2019-04-07T18:05:01.287Z,13.90
2019-04-07T18:09:23.402Z,13.70
2019-04-07T18:13:44.949Z,13.03
2019-04-07T18:17:56.088Z,21.07
2019-04-07T18:22:06.159Z,14.03
2019-04-07T18:26:26.319Z,13.70
2019-04-07T18:30:31.520Z,14.53
2019-04-07T18:34:50.473Z,13.73
2019-04-07T18:39:05.250Z,12.40
2019-04-07T18:43:13.862Z,14.67
2019-04-07T18:47:24.535Z,14.20
2019-04-07T18:51:30.183Z,13.23
2019-04-07T18:55:38.958Z,14.70
2019-04-07T18:59:47.397Z,14.07
2019-04-07T19:03:56.037Z,15.43
2019-04-07T19:08:02.643Z,13.90
2019-04-07T19:12:14.239Z,14.17
2019-04-07T19:16:21.605Z,17.30
2019-04-07T19:20:26.789Z,18.10
2019-04-07T19:24:35.834Z,15.00
2019-04-07T19:28:38.994Z,13.40
2019-04-07T19:32:41.951Z,11.83
2019-04-07T19:36:47.201Z,12.57
2019-04-07T19:41:06.863Z,12.87
2019-04-07T19:45:26.910Z,13.63
2019-04-07T19:49:30.068Z,13.50
2019-04-07T19:53:43.213Z,12.60
2019-04-07T19:58:02.686Z,13.50
2019-04-07T20:02:22.258Z,12.87
2019-04-07T20:06:27.917Z,12.50
2019-04-07T20:10:36.813Z,12.63
2019-04-07T20:14:55.557Z,13.77
2019-04-07T20:19:06.536Z,13.37
2019-04-07T20:23:29.610Z,11.30
2019-04-07T20:27:40.586Z,13.47
2019-04-07T20:31:53.718Z,12.33
2019-04-07T20:36:06.637Z,12.90
2019-04-07T20:40:26.880Z,13.70
2019-04-07T20:45:00.036Z,12.90
2019-04-07T20:49:10.375Z,14.43
2019-04-07T20:53:17.657Z,13.83
2019-04-07T20:57:23.646Z,16.93
2019-04-07T21:01:22.676Z,15.37
2019-04-07T21:05:27.104Z,15.97
2019-04-07T21:09:36.032Z,17.07
2019-04-07T21:13:41.975Z,30.10
2019-04-07T21:17:45.008Z,19.77
2019-04-07T21:21:50.806Z,15.20
2019-04-07T21:25:55.971Z,12.90
2019-04-07T21:30:04.590Z,11.67
2019-04-07T21:34:10.316Z,14.23
2019-04-07T21:38:19.682Z,14.47
2019-04-07T21:42:27.448Z,14.13
2019-04-07T21:46:47.283Z,15.20
2019-04-07T21:50:56.212Z,14.87
2019-04-07T21:55:02.156Z,14.53
2019-04-07T21:59:21.755Z,14.17
2019-04-07T22:03:36.227Z,14.90
2019-04-07T22:07:46.183Z,13.70
2019-04-07T22:11:47.309Z,14.53
2019-04-07T22:15:54.829Z,18.60
2019-04-07T22:19:51.197Z,16.50
2019-04-07T22:23:52.151Z,16.13
2019-04-07T22:27:55.543Z,17.70
2019-04-07T22:31:57.758Z,14.73
2019-04-07T22:35:59.606Z,13.53
2019-04-07T22:40:02.198Z,16.57
2019-04-07T22:44:03.892Z,15.27
2019-04-07T22:48:08.110Z,15.53
2019-04-07T22:52:07.747Z,15.97
2019-04-07T22:56:09.185Z,15.67
2019-04-07T23:00:13.194Z,16.10
2019-04-07T23:04:14.281Z,16.90
2019-04-07T23:08:15.261Z,15.80
2019-04-07T23:12:16.928Z,18.07
2019-04-07T23:16:18.855Z,17.87
2019-04-07T23:20:21.360Z,17.40
2019-04-07T23:24:22.437Z,17.30
2019-04-07T23:28:23.470Z,17.07
2019-04-07T23:32:25.435Z,17.13
2019-04-07T23:36:26.555Z,16.73
2019-04-07T23:40:28.059Z,17.40
2019-04-07T23:44:29.670Z,16.30
2019-04-07T23:48:30.762Z,16.87
2019-04-07T23:52:31.666Z,17.63
2019-04-07T23:56:33.597Z,16.93
